Time;durP1;ratioP1;P1;durP2;ratioP2;P2;SDS_P1;SDS_P2;PMS_P1;PMS_P2;Temp;Humidity;BMP_temperature;BMP_pressure;BME280_temperature;BME280_humidity;BME280_pressure;Samples;Min_cycle;Max_cycle;Signal;HPM_P1;HPM_P2
2023/01/08 00:00:45;;;;;;;11.88;5.57;;;;;;;-144.47;84.27;52961.34;4994351;28;20026;-70
2023/01/08 00:03:12;;;;;;;8.05;4.72;;;;;;;-144.47;84.28;52979.22;4994867;28;20032;-67
2023/01/08 00:05:37;;;;;;;9.60;5.50;;;;;;;-144.47;84.43;52935.53;4990928;28;20031;-66
2023/01/08 00:08:03;;;;;;;11.18;5.95;;;;;;;-144.47;84.66;52943.47;4996139;28;20025;-67
2023/01/08 00:10:29;;;;;;;12.23;6.38;;;;;;;-144.47;85.01;52919.66;4991691;28;20014;-68
2023/01/08 00:12:55;;;;;;;11.13;6.07;;;;;;;-144.47;84.92;52967.31;4991889;28;20026;-67
2023/01/08 00:15:21;;;;;;;11.20;6.10;;;;;;;-144.47;85.16;52949.44;4991176;28;20105;-67
2023/01/08 00:17:46;;;;;;;13.60;6.97;;;;;;;-144.47;85.48;52955.41;4986762;28;20113;-68
2023/01/08 00:20:12;;;;;;;10.80;6.07;;;;;;;-144.47;85.63;52915.69;4996478;28;20041;-64
2023/01/08 00:22:37;;;;;;;11.35;6.40;;;;;;;-144.47;85.68;52959.38;4993067;28;20026;-66
2023/01/08 00:25:03;;;;;;;12.75;6.35;;;;;;;-144.47;85.68;52939.50;4990283;28;20053;-69
2023/01/08 00:27:29;;;;;;;13.35;7.53;;;;;;;-144.47;85.52;52909.72;4997326;28;20026;-68
2023/01/08 00:29:54;;;;;;;13.35;6.68;;;;;;;-144.47;84.83;52969.31;4991222;28;20053;-68
2023/01/08 00:32:20;;;;;;;11.15;6.32;;;;;;;-144.47;84.59;52941.50;4998469;28;20065;-69
2023/01/08 00:34:45;;;;;;;13.15;6.32;;;;;;;-144.47;83.79;52947.47;4998590;28;20388;-68
2023/01/08 00:37:11;;;;;;;11.05;6.32;;;;;;;-144.47;83.07;52939.50;5012397;28;20034;-68
2023/01/08 00:39:36;;;;;;;12.20;6.55;;;;;;;-144.47;82.72;52931.56;4999667;28;20381;-66
2023/01/08 00:42:01;;;;;;;10.93;6.10;;;;;;;-144.47;82.41;52939.50;4993327;28;20089;-68
2023/01/08 00:44:27;;;;;;;10.02;5.50;;;;;;;-144.47;81.99;52935.53;4990539;28;20037;-67
2023/01/08 00:46:52;;;;;;;9.55;5.22;;;;;;;-144.47;81.72;52947.47;5002299;28;20034;-64
2023/01/08 00:49:17;;;;;;;8.05;5.25;;;;;;;-144.47;81.79;52919.66;4994051;28;20022;-68
2023/01/08 00:51:43;;;;;;;8.80;5.25;;;;;;;-144.47;81.93;52925.59;4989012;28;20049;-66
2023/01/08 00:54:10;;;;;;;8.88;5.15;;;;;;;-144.47;81.77;52921.63;4992895;28;20107;-68
2023/01/08 00:56:36;;;;;;;9.23;5.78;;;;;;;-144.47;81.99;52913.69;4990191;28;20038;-69
2023/01/08 00:59:01;;;;;;;8.82;5.38;;;;;;;-144.47;81.74;52905.75;4990726;28;20022;-66
2023/01/08 01:01:26;;;;;;;9.00;5.00;;;;;;;-144.47;81.99;52917.66;5000967;23;20157;-67
2023/01/08 01:03:52;;;;;;;12.05;6.05;;;;;;;-144.47;81.94;52965.34;4986848;28;20028;-67
2023/01/08 01:06:17;;;;;;;11.75;5.75;;;;;;;-144.47;81.77;52939.50;4987320;28;20030;-68
2023/01/08 01:08:43;;;;;;;10.38;6.07;;;;;;;-144.47;81.80;52947.47;4993198;28;20057;-66
2023/01/08 01:11:16;;;;;;;10.70;5.80;;;;;;;-144.47;81.68;52921.63;4988288;28;20104;-67
2023/01/08 01:13:42;;;;;;;9.05;5.40;;;;;;;-144.47;81.56;52933.56;4988518;28;20026;-68
2023/01/08 01:16:07;;;;;;;11.77;5.88;;;;;;;-144.47;81.58;52941.50;4987168;28;20041;-67
2023/01/08 01:18:33;;;;;;;10.40;5.70;;;;;;;-144.47;81.77;52923.63;4987227;28;20042;-67
2023/01/08 01:20:58;;;;;;;8.30;5.10;;;;;;;-144.47;82.09;52931.56;4988551;28;20026;-69
2023/01/08 01:23:24;;;;;;;10.18;5.40;;;;;;;-144.47;82.09;52919.66;4987842;28;20045;-67
2023/01/08 01:25:50;;;;;;;9.07;4.85;;;;;;;-144.47;82.01;52911.69;4987776;28;20464;-67
2023/01/08 01:28:16;;;;;;;11.52;5.50;;;;;;;-144.47;82.10;52935.53;4987763;28;20026;-68
2023/01/08 01:30:41;;;;;;;10.60;5.53;;;;;;;-144.47;82.20;52941.50;4987032;28;20022;-67
2023/01/08 01:33:06;;;;;;;13.07;6.03;;;;;;;-144.47;82.27;52937.53;4988455;28;20412;-68
2023/01/08 01:35:32;;;;;;;10.23;5.45;;;;;;;-144.47;82.54;52953.41;4987993;28;20029;-67
2023/01/08 01:37:57;;;;;;;9.88;5.65;;;;;;;-144.47;82.76;52945.47;4985028;28;20049;-67
2023/01/08 01:40:22;;;;;;;9.35;5.63;;;;;;;-144.47;82.76;52915.69;4987892;28;20032;-69
2023/01/08 01:42:48;;;;;;;16.02;5.25;;;;;;;-144.47;82.67;52923.63;4993942;28;20033;-68
2023/01/08 01:45:19;;;;;;;9.20;5.40;;;;;;;-144.47;82.07;52909.72;4992476;28;20034;-68
2023/01/08 01:47:58;;;;;;;9.40;5.18;;;;;;;-144.47;81.98;52915.69;4993515;28;20465;-67
2023/01/08 01:50:32;;;;;;;9.80;5.15;;;;;;;-144.47;81.93;52943.47;4984965;28;20046;-66
2023/01/08 01:53:02;;;;;;;9.52;4.70;;;;;;;-144.47;81.55;52937.53;4987953;28;20030;-67
2023/01/08 01:55:29;;;;;;;12.05;5.15;;;;;;;-144.47;81.40;52945.47;4987716;28;20041;-67
2023/01/08 01:58:10;;;;;;;9.15;5.30;;;;;;;-144.47;81.52;52937.53;4987447;28;20026;-67
2023/01/08 02:00:36;;;;;;;8.05;4.60;;;;;;;-144.47;81.69;52935.53;4974822;28;20038;-67
2023/01/08 02:03:02;;;;;;;9.15;4.57;;;;;;;-144.47;81.22;52913.69;4987022;28;20034;-70
2023/01/08 02:05:37;;;;;;;10.38;5.07;;;;;;;-144.47;81.52;52937.53;4987273;28;20034;-66
2023/01/08 02:08:11;;;;;;;10.48;5.03;;;;;;;-144.47;81.22;52941.50;4992456;28;20040;-68
2023/01/08 02:11:08;;;;;;;8.25;4.80;;;;;;;-144.47;81.50;52925.59;4988315;28;20038;-67
2023/01/08 02:13:37;;;;;;;9.52;4.45;;;;;;;-144.47;81.62;52943.47;4989670;28;20516;-67
2023/01/08 02:16:17;;;;;;;8.55;4.50;;;;;;;-144.47;81.86;52939.50;4991117;28;20042;-68
2023/01/08 02:19:20;;;;;;;8.07;4.30;;;;;;;-144.47;81.92;52933.56;4989189;28;20022;-67
2023/01/08 02:22:13;;;;;;;7.78;4.45;;;;;;;-144.47;82.27;52945.47;4988442;28;20035;-67
2023/01/08 02:24:53;;;;;;;8.32;4.20;;;;;;;-144.47;82.33;52967.31;4988602;28;20026;-67
2023/01/08 02:27:23;;;;;;;7.82;4.13;;;;;;;-144.47;82.47;52959.38;4988122;28;20045;-66
2023/01/08 02:29:50;;;;;;;;;;;;;;;-144.47;82.62;52919.66;4988331;28;20085;-67
2023/01/08 02:32:15;;;;;;;10.90;4.60;;;;;;;-144.47;82.82;52953.41;4986977;28;19925;-67
2023/01/08 02:34:41;;;;;;;8.13;3.85;;;;;;;-144.47;83.04;52955.41;4987120;28;20102;-67
2023/01/08 02:37:08;;;;;;;8.70;4.38;;;;;;;-144.47;83.47;52943.47;4990897;28;20113;-67
2023/01/08 02:40:24;;;;;;;9.68;4.95;;;;;;;-144.47;83.42;52959.38;4988839;28;20117;-67
2023/01/08 02:42:58;;;;;;;10.57;5.20;;;;;;;-144.47;82.82;52935.53;4946919;29;20042;-67
2023/01/08 02:45:39;;;;;;;8.57;4.10;;;;;;;-144.47;82.42;52953.41;4991543;28;20461;-67
2023/01/08 02:48:18;;;;;;;11.95;4.25;;;;;;;-144.47;81.91;52939.50;4988900;28;20042;-68
2023/01/08 02:50:50;;;;;;;8.13;4.47;;;;;;;-144.47;81.86;52967.31;4990301;28;20092;-66
2023/01/08 02:53:24;;;;;;;9.27;3.92;;;;;;;-144.47;81.77;52957.38;4990968;28;20041;-67
2023/01/08 02:55:56;;;;;;;9.13;4.57;;;;;;;-144.47;81.59;52903.75;4990593;28;20053;-66
2023/01/08 02:58:23;;;;;;;9.68;3.60;;;;;;;-144.47;81.00;52931.56;4990453;28;20037;-66
2023/01/08 03:00:50;;;;;;;6.15;3.63;;;;;;;-144.47;80.61;52963.34;4990357;28;20034;-66
2023/01/08 03:03:21;;;;;;;6.97;3.58;;;;;;;-144.47;79.79;52933.56;4988721;28;20041;-66
2023/01/08 03:05:53;;;;;;;8.50;3.78;;;;;;;-144.47;79.43;52903.75;4990902;28;20018;-68
2023/01/08 03:08:20;;;;;;;7.40;3.97;;;;;;;-144.47;78.97;52939.50;4995568;28;20164;-67
2023/01/08 03:10:54;;;;;;;7.43;3.75;;;;;;;-144.47;78.67;52951.44;4990295;28;20050;-69
2023/01/08 03:13:36;;;;;;;7.40;3.80;;;;;;;-144.47;78.39;52915.69;4990923;28;20440;-67
2023/01/08 03:16:08;;;;;;;7.65;3.08;;;;;;;-144.47;78.42;52935.53;4990428;28;20036;-67
2023/01/08 03:18:40;;;;;;;7.53;3.35;;;;;;;-144.47;77.77;52919.66;4989925;28;20022;-68
2023/01/08 03:21:06;;;;;;;6.72;3.40;;;;;;;-144.47;77.85;52937.53;4990408;28;20125;-68
2023/01/08 03:23:36;;;;;;;7.93;3.63;;;;;;;-144.47;77.64;52925.59;4990056;28;20069;-67
2023/01/08 03:26:03;;;;;;;6.15;3.47;;;;;;;-144.47;77.42;52915.69;4990244;28;20137;-68
2023/01/08 03:28:40;;;;;;;6.47;3.05;;;;;;;-144.47;77.13;52901.78;4990083;28;20026;-66
2023/01/08 03:31:07;;;;;;;6.43;3.17;;;;;;;-144.47;77.04;52891.84;4990362;28;20053;-66
2023/01/08 03:33:35;;;;;;;6.30;3.15;;;;;;;-144.47;76.78;52933.56;4989576;28;20033;-68
2023/01/08 03:36:03;;;;;;;10.30;3.00;;;;;;;-144.47;76.71;52935.53;4990091;28;20030;-68
2023/01/08 03:38:39;;;;;;;6.32;3.45;;;;;;;-144.47;76.74;52925.59;4989533;28;20027;-66
2023/01/08 03:41:12;;;;;;;6.40;3.17;;;;;;;-144.47;76.60;52917.66;4991390;28;20054;-68
2023/01/08 03:43:38;;;;;;;7.95;3.58;;;;;;;-144.47;76.73;52961.34;4992750;28;20080;-68
2023/01/08 03:46:09;;;;;;;9.43;3.30;;;;;;;-144.47;77.14;52931.56;4999561;28;20026;-67
2023/01/08 03:48:37;;;;;;;6.43;3.53;;;;;;;-144.47;77.54;52951.44;4991188;28;20030;-66
2023/01/08 03:51:06;;;;;;;6.57;3.25;;;;;;;-144.47;77.81;52943.47;4989744;28;20038;-67
2023/01/08 03:53:31;;;;;;;5.95;2.97;;;;;;;-144.47;77.89;52953.41;4989650;28;20030;-67
2023/01/08 03:55:57;;;;;;;5.30;2.90;;;;;;;-144.47;77.79;52913.69;4989653;28;20550;-67
2023/01/08 03:58:22;;;;;;;6.43;2.92;;;;;;;-144.47;77.38;52929.59;4989348;28;20117;-67
2023/01/08 04:00:48;;;;;;;7.22;2.90;;;;;;;-144.47;77.25;52925.59;4989383;28;20031;-67
2023/01/08 04:03:13;;;;;;;6.78;3.30;;;;;;;-144.47;76.86;52925.59;4989196;28;20037;-67
2023/01/08 04:05:38;;;;;;;6.95;2.80;;;;;;;-144.47;76.35;52939.50;4989473;28;20026;-67
2023/01/08 04:08:04;;;;;;;8.18;3.60;;;;;;;-144.47;75.76;52923.63;4996103;28;20024;-66
2023/01/08 04:10:29;;;;;;;7.97;3.30;;;;;;;-144.47;75.65;52903.75;4990382;28;20642;-67
2023/01/08 04:12:55;;;;;;;6.53;3.10;;;;;;;-144.47;75.67;52919.66;4989226;28;20090;-66
2023/01/08 04:15:20;;;;;;;7.40;3.45;;;;;;;-144.47;75.36;52919.66;4990195;28;20096;-67
2023/01/08 04:17:45;;;;;;;7.22;3.15;;;;;;;-144.47;75.46;52927.59;4989148;28;20076;-68
2023/01/08 04:20:11;;;;;;;7.72;3.22;;;;;;;-144.47;75.61;52925.59;4989427;28;20037;-68
2023/01/08 04:22:36;;;;;;;6.10;3.30;;;;;;;-144.47;75.48;52917.66;4989376;28;20075;-68
2023/01/08 04:25:02;;;;;;;6.03;3.15;;;;;;;-144.47;75.74;52947.47;4989348;28;20022;-68
2023/01/08 04:27:27;;;;;;;6.10;3.33;;;;;;;-144.47;75.73;52947.47;4988928;28;20515;-69
2023/01/08 04:29:52;;;;;;;5.80;2.90;;;;;;;-144.47;76.04;52911.69;4989511;28;20503;-66
2023/01/08 04:32:18;;;;;;;7.05;3.25;;;;;;;-144.47;75.97;52905.75;4988358;28;20164;-67
2023/01/08 04:34:44;;;;;;;7.80;3.35;;;;;;;-144.47;75.97;52927.59;4988860;28;20045;-67
2023/01/08 04:37:09;;;;;;;7.32;3.30;;;;;;;-144.47;76.23;52917.66;4988466;28;20042;-67
2023/01/08 04:39:34;;;;;;;10.52;3.72;;;;;;;-144.47;76.11;52939.50;4988594;28;20497;-67
2023/01/08 04:42:00;;;;;;;6.28;3.20;;;;;;;-144.47;76.45;52911.69;4996433;28;20033;-67
2023/01/08 04:44:25;;;;;;;11.38;3.83;;;;;;;-144.47;76.53;52939.50;4991771;28;20041;-68
2023/01/08 04:46:51;;;;;;;5.70;3.22;;;;;;;-144.47;76.55;52941.50;4998246;28;20026;-68
2023/01/08 04:49:16;;;;;;;8.65;3.10;;;;;;;-144.47;76.61;52911.69;4983200;28;20022;-67
2023/01/08 04:51:41;;;;;;;6.82;3.35;;;;;;;-144.47;76.73;52917.66;4988931;28;20036;-65
2023/01/08 04:54:07;;;;;;;6.25;3.20;;;;;;;-144.47;76.45;52945.47;4988476;28;20034;-67
2023/01/08 04:56:32;;;;;;;6.57;2.60;;;;;;;-144.47;76.16;52933.56;4988308;28;20057;-66
2023/01/08 04:58:58;;;;;;;8.43;3.72;;;;;;;-144.47;75.88;52939.50;4988806;28;20054;-67
2023/01/08 05:01:25;;;;;;;7.43;3.13;;;;;;;-144.47;75.53;52923.63;4988421;28;20061;-67
2023/01/08 05:03:56;;;;;;;6.15;3.00;;;;;;;-144.47;75.62;52913.69;4988707;28;20443;-67
2023/01/08 05:06:21;;;;;;;6.65;3.35;;;;;;;-144.47;75.31;52907.72;4988103;28;20611;-66
2023/01/08 05:08:47;;;;;;;5.57;2.83;;;;;;;-144.47;75.57;52933.56;4994099;28;20078;-67
2023/01/08 05:11:12;;;;;;;5.85;3.22;;;;;;;-144.47;75.52;52933.56;4987941;28;20109;-67
2023/01/08 05:13:38;;;;;;;5.72;2.97;;;;;;;-144.47;75.39;52933.56;4988221;28;20050;-67
2023/01/08 05:16:03;;;;;;;6.03;3.10;;;;;;;-144.47;75.65;52931.56;4988132;28;20084;-67
2023/01/08 05:18:29;;;;;;;6.00;2.67;;;;;;;-144.47;75.66;52925.59;4987629;28;20085;-68
2023/01/08 05:20:59;;;;;;;6.10;2.92;;;;;;;-144.47;75.26;52947.47;4987548;28;20368;-67
2023/01/08 05:23:24;;;;;;;9.93;3.03;;;;;;;-144.47;75.48;52931.56;4988216;28;20503;-66
2023/01/08 05:25:50;;;;;;;6.55;2.55;;;;;;;-144.47;75.49;52943.47;4987935;28;20034;-66
2023/01/08 05:28:15;;;;;;;6.63;2.88;;;;;;;-144.47;75.13;52909.72;4988049;28;20058;-66
2023/01/08 05:30:40;;;;;;;7.28;2.72;;;;;;;-144.47;75.12;52911.69;4987916;28;20022;-66
2023/01/08 05:33:06;;;;;;;5.95;2.88;;;;;;;-144.47;74.96;52913.69;4987548;28;20026;-66
2023/01/08 05:35:31;;;;;;;4.78;2.40;;;;;;;-144.47;74.98;52903.75;4987383;28;20073;-67
2023/01/08 05:37:58;;;;;;;6.93;2.78;;;;;;;-144.47;74.79;52907.72;4987211;28;20015;-66
2023/01/08 05:40:24;;;;;;;4.93;2.58;;;;;;;-144.47;74.81;52897.81;4987338;28;20085;-68
2023/01/08 05:42:49;;;;;;;5.70;2.45;;;;;;;-144.47;74.90;52933.56;4995961;28;20030;-66
2023/01/08 05:45:15;;;;;;;4.78;2.58;;;;;;;-144.47;74.93;52923.63;4994126;28;20022;-67
2023/01/08 05:47:40;;;;;;;5.65;2.92;;;;;;;-144.47;74.96;52937.53;4994839;28;20042;-67
2023/01/08 05:50:06;;;;;;;7.70;2.97;;;;;;;-144.47;75.04;52911.69;4982811;28;20022;-67
2023/01/08 05:52:31;;;;;;;5.47;2.70;;;;;;;-144.47;75.12;52907.72;4987764;28;20433;-67
2023/01/08 05:54:58;;;;;;;7.65;3.70;;;;;;;-144.47;74.80;52917.66;4990239;28;20460;-67
2023/01/08 05:57:24;;;;;;;7.70;3.20;;;;;;;-144.47;75.23;52915.69;4988385;28;20112;-67
2023/01/08 05:59:49;;;;;;;5.68;2.83;;;;;;;-144.47;75.26;52921.63;4988864;28;20445;-67
2023/01/08 06:02:15;;;;;;;5.85;3.05;;;;;;;-144.47;75.53;52927.59;4989656;28;20042;-67
2023/01/08 06:04:40;;;;;;;10.48;3.15;;;;;;;-144.47;75.49;52921.63;4987822;28;20125;-66
2023/01/08 06:07:05;;;;;;;6.05;3.13;;;;;;;-144.47;75.56;52925.59;4987065;28;20072;-69
2023/01/08 06:09:31;;;;;;;7.68;2.90;;;;;;;-144.47;75.74;52947.47;4998067;28;20467;-66
2023/01/08 06:11:56;;;;;;;7.57;2.97;;;;;;;-144.47;75.91;52901.78;4991529;28;20080;-66
2023/01/08 06:14:22;;;;;;;5.90;2.97;;;;;;;-144.47;75.93;52907.72;4991494;28;20094;-66
2023/01/08 06:16:48;;;;;;;7.28;3.72;;;;;;;-144.47;75.97;52931.56;4990078;28;20041;-68
2023/01/08 06:19:13;;;;;;;6.28;3.58;;;;;;;-144.47;76.13;52941.50;4990617;28;20030;-68
2023/01/08 06:21:38;;;;;;;10.35;3.58;;;;;;;-144.47;76.11;52917.66;4990088;28;20030;-68
2023/01/08 06:24:04;;;;;;;8.30;3.38;;;;;;;-144.47;76.23;52917.66;4991084;28;20018;-68
2023/01/08 06:26:30;;;;;;;6.35;3.25;;;;;;;-144.47;76.38;52907.72;4990515;28;20042;-68
2023/01/08 06:28:55;;;;;;;7.47;3.10;;;;;;;-144.47;76.31;52891.84;4989693;28;20030;-68
2023/01/08 06:31:20;;;;;;;8.13;3.42;;;;;;;-144.47;76.60;52935.53;4990755;28;20041;-68
2023/01/08 06:33:46;;;;;;;7.05;2.95;;;;;;;-144.47;76.34;52925.59;4990795;28;20045;-68
2023/01/08 06:36:11;;;;;;;14.10;4.05;;;;;;;-144.47;76.58;52885.88;4991054;28;20499;-68
2023/01/08 06:38:37;;;;;;;5.82;3.08;;;;;;;-144.47;76.51;52895.81;4972839;28;20492;-68
2023/01/08 06:41:07;;;;;;;6.15;2.85;;;;;;;-144.47;76.41;52911.69;5000209;28;20109;-68
2023/01/08 06:43:34;;;;;;;6.70;3.15;;;;;;;-144.47;76.55;52931.56;4991428;28;20084;-67
2023/01/08 06:45:59;;;;;;;5.53;2.72;;;;;;;-144.47;76.45;52919.66;4988976;28;20037;-67
2023/01/08 06:48:25;;;;;;;6.40;3.17;;;;;;;-144.47;76.63;52899.78;4989726;28;20038;-67
2023/01/08 06:50:51;;;;;;;6.78;3.30;;;;;;;-144.47;76.64;52899.78;4990862;28;20496;-68
2023/01/08 06:53:17;;;;;;;6.43;3.38;;;;;;;-144.47;76.73;52887.88;4989218;28;20164;-69
2023/01/08 06:55:42;;;;;;;8.57;3.30;;;;;;;-144.47;76.68;52907.72;4990625;28;20029;-68
2023/01/08 06:58:09;;;;;;;9.55;3.58;;;;;;;-144.47;76.85;52923.63;4990054;28;20088;-68
2023/01/08 07:00:34;;;;;;;4.82;2.80;;;;;;;-144.47;76.84;52913.69;4990498;28;20049;-69
2023/01/08 07:03:00;;;;;;;8.32;3.63;;;;;;;-144.47;77.03;52915.69;5008394;22;20074;-71
2023/01/08 07:05:25;;;;;;;6.93;3.22;;;;;;;-144.47;77.05;52921.63;4989549;28;20030;-72
2023/01/08 07:07:50;;;;;;;7.00;3.80;;;;;;;-144.47;77.17;52921.63;4981824;28;20037;-73
2023/01/08 07:10:16;;;;;;;11.98;3.55;;;;;;;-144.47;77.35;52941.50;4982165;28;20015;-73
2023/01/08 07:12:41;;;;;;;7.95;3.70;;;;;;;-144.47;77.42;52915.69;4980702;28;20026;-70
2023/01/08 07:15:07;;;;;;;7.25;3.50;;;;;;;-144.47;77.41;52911.69;4983916;28;20037;-70
2023/01/08 07:17:33;;;;;;;6.82;3.42;;;;;;;-144.47;77.41;52935.53;4989510;28;20124;-74
2023/01/08 07:19:58;;;;;;;7.18;3.72;;;;;;;-144.47;77.55;52925.59;4979232;28;20218;-72
2023/01/08 07:22:24;;;;;;;7.40;3.58;;;;;;;-144.47;77.75;52915.69;4978740;28;20046;-71
2023/01/08 07:24:50;;;;;;;28.30;3.92;;;;;;;-144.47;79.31;52907.72;4976121;28;20476;-71
2023/01/08 07:27:16;;;;;;;7.40;3.75;;;;;;;-144.47;79.01;52875.94;4979651;28;20031;-72
2023/01/08 07:29:41;;;;;;;10.20;3.90;;;;;;;-144.47;79.04;52927.59;4982523;28;20023;-69
2023/01/08 07:32:07;;;;;;;9.88;3.33;;;;;;;-144.47;78.40;52935.53;4979213;28;20038;-68
2023/01/08 07:34:33;;;;;;;6.30;3.38;;;;;;;-144.47;78.76;52887.88;4976884;28;20059;-69
2023/01/08 07:36:59;;;;;;;6.43;3.60;;;;;;;-144.47;77.47;52915.69;4971543;28;20042;-70
2023/01/08 07:39:24;;;;;;;8.40;4.50;;;;;;;-144.47;77.15;52925.59;4984716;28;20031;-70
2023/01/08 07:41:50;;;;;;;7.45;3.90;;;;;;;-144.47;77.00;52911.69;4976067;28;20023;-70
2023/01/08 07:44:15;;;;;;;11.00;3.70;;;;;;;-144.47;77.16;52893.81;4978342;28;20034;-68
2023/01/08 07:46:40;;;;;;;6.75;3.63;;;;;;;-144.47;77.27;52899.78;4982051;28;20481;-67
2023/01/08 07:49:06;;;;;;;6.70;3.35;;;;;;;-144.47;77.17;52893.81;4973977;28;20511;-70
2023/01/08 07:51:31;;;;;;;8.18;3.30;;;;;;;-144.47;77.54;52917.66;4975973;28;20031;-68
2023/01/08 07:53:57;;;;;;;7.25;3.58;;;;;;;-144.47;77.77;52907.72;4975590;28;20046;-68
2023/01/08 07:56:22;;;;;;;9.23;3.63;;;;;;;-144.47;77.62;52943.47;4970941;28;20023;-72
2023/01/08 07:58:48;;;;;;;7.85;3.85;;;;;;;-144.47;77.87;52925.59;4981541;28;20022;-71
2023/01/08 08:01:13;;;;;;;9.57;3.85;;;;;;;-144.47;77.95;52909.72;4986748;28;20030;-70
2023/01/08 08:03:39;;;;;;;6.65;3.15;;;;;;;-144.47;77.81;52927.59;4978137;28;20035;-71
2023/01/08 08:06:05;;;;;;;7.20;3.97;;;;;;;-144.47;78.02;52915.69;4968344;28;20396;-72
2023/01/08 08:08:30;;;;;;;8.82;4.90;;;;;;;-144.47;78.15;52907.72;4977634;28;20404;-70
2023/01/08 08:10:56;;;;;;;6.30;3.67;;;;;;;-144.47;78.11;52897.81;4972231;28;20081;-67
2023/01/08 08:13:21;;;;;;;7.85;3.63;;;;;;;-144.47;78.16;52891.84;4972633;28;20050;-72
2023/01/08 08:15:46;;;;;;;7.60;3.63;;;;;;;-144.47;78.17;52947.47;4983198;28;20057;-73
2023/01/08 08:18:12;;;;;;;7.35;3.50;;;;;;;-144.47;78.41;52897.81;4973133;28;20030;-71
2023/01/08 08:20:38;;;;;;;8.40;3.75;;;;;;;-144.47;78.05;52935.53;4972113;28;20039;-70
2023/01/08 08:23:09;;;;;;;6.57;3.22;;;;;;;-144.47;78.20;52933.56;4976394;28;20110;-71
2023/01/08 08:25:35;;;;;;;5.38;3.03;;;;;;;-144.47;78.09;52897.81;4983451;28;20023;-67
2023/01/08 08:28:02;;;;;;;7.13;3.45;;;;;;;-144.47;78.22;52907.72;4971667;28;20027;-67
2023/01/08 08:30:29;;;;;;;6.72;3.55;;;;;;;-144.47;78.25;52899.78;4969806;28;20027;-67
2023/01/08 08:32:59;;;;;;;8.50;3.63;;;;;;;-144.47;78.44;52909.72;4979267;28;20033;-66
2023/01/08 08:35:25;;;;;;;6.55;3.42;;;;;;;-144.47;78.42;52911.69;4990685;28;20026;-68
2023/01/08 08:37:50;;;;;;;10.23;3.20;;;;;;;-144.47;78.37;52907.72;4973207;28;20481;-66
2023/01/08 08:40:15;;;;;;;9.02;3.53;;;;;;;-144.47;78.47;52899.78;4965143;28;20037;-70
2023/01/08 08:42:41;;;;;;;7.47;3.65;;;;;;;-144.47;78.55;52923.63;4986537;28;20372;-68
2023/01/08 08:45:07;;;;;;;7.47;4.15;;;;;;;-144.47;78.72;52911.69;4980758;28;20026;-68
2023/01/08 08:47:32;;;;;;;7.00;4.10;;;;;;;-144.47;79.14;52905.75;4982763;28;20038;-71
2023/01/08 08:49:57;;;;;;;8.32;4.15;;;;;;;-144.47;79.04;52915.69;4964958;28;20030;-67
2023/01/08 08:52:23;;;;;;;11.25;4.50;;;;;;;-144.47;79.11;52891.84;4972199;28;20034;-68
2023/01/08 08:54:48;;;;;;;12.35;5.65;;;;;;;-144.47;79.53;52911.69;4984365;28;20102;-69
2023/01/08 08:57:13;;;;;;;11.00;4.07;;;;;;;-144.47;79.67;52883.91;4970251;28;20032;-69
2023/01/08 08:59:39;;;;;;;9.95;4.03;;;;;;;-144.47;80.06;52923.63;4974620;28;20027;-69
2023/01/08 09:02:05;;;;;;;8.57;3.67;;;;;;;-144.47;79.82;52895.81;4970962;28;20481;-72
2023/01/08 09:04:32;;;;;;;8.65;3.88;;;;;;;-144.47;79.81;52903.75;4970293;28;20109;-68
2023/01/08 09:06:58;;;;;;;8.32;4.40;;;;;;;-144.47;79.93;52931.56;4973290;28;20473;-68
2023/01/08 09:09:23;;;;;;;9.18;4.35;;;;;;;-144.47;79.56;52883.91;4984262;28;20046;-70
2023/01/08 09:11:49;;;;;;;10.18;4.40;;;;;;;-144.47;79.54;52897.81;4965405;28;20117;-66
2023/01/08 09:14:14;;;;;;;8.43;4.28;;;;;;;-144.47;79.63;52899.78;4979090;28;20080;-69
2023/01/08 09:16:40;;;;;;;10.18;4.32;;;;;;;-144.47;79.73;52929.59;4970186;28;20122;-68
2023/01/08 09:19:06;;;;;;;13.50;6.03;;;;;;;-144.47;79.90;52915.69;4983082;28;20050;-65
2023/01/08 09:21:31;;;;;;;8.63;4.57;;;;;;;-144.47;79.81;52931.56;4971172;28;20023;-69
2023/01/08 09:23:57;;;;;;;9.80;4.97;;;;;;;-144.47;79.79;52911.69;4983474;28;20046;-68
2023/01/08 09:26:22;;;;;;;9.32;5.32;;;;;;;-144.47;79.75;52919.66;4969575;28;20025;-67
2023/01/08 09:28:48;;;;;;;8.45;4.13;;;;;;;-144.47;79.48;52895.81;4982466;28;20026;-69
2023/01/08 09:31:13;;;;;;;10.55;4.45;;;;;;;-144.47;79.54;52913.69;4974830;28;20022;-67
2023/01/08 09:33:38;;;;;;;11.05;5.20;;;;;;;-144.47;79.69;52891.84;4980546;28;20046;-68
2023/01/08 09:36:07;;;;;;;10.25;5.22;;;;;;;-144.47;79.67;52905.75;4972528;28;20436;-67
2023/01/08 09:38:32;;;;;;;9.05;5.03;;;;;;;-144.47;79.69;52911.69;4971452;28;20050;-71
2023/01/08 09:41:06;;;;;;;19.58;8.00;;;;;;;-144.47;79.44;52891.84;4970599;28;20027;-68
2023/01/08 09:43:35;;;;;;;16.77;7.38;;;;;;;-144.47;79.16;52913.69;4977795;28;20041;-70
2023/01/08 09:46:04;;;;;;;31.08;9.88;;;;;;;-144.47;79.26;52895.81;4978193;28;20500;-70
2023/01/08 09:48:34;;;;;;;27.58;9.35;;;;;;;-144.47;78.77;52925.59;4969019;28;20034;-69
2023/01/08 09:50:59;;;;;;;26.98;9.25;;;;;;;-144.47;78.45;52903.75;4969865;28;20069;-69
2023/01/08 09:53:26;;;;;;;27.58;9.68;;;;;;;-144.47;78.27;52921.63;4985299;28;20482;-72
2023/01/08 09:55:59;;;;;;;26.52;9.45;;;;;;;-144.47;77.88;52895.81;4982471;28;20564;-68
2023/01/08 09:58:32;;;;;;;18.63;7.20;;;;;;;-144.47;77.55;52923.63;4970372;28;20038;-68
2023/01/08 10:00:59;;;;;;;19.30;8.57;;;;;;;-144.47;77.47;52893.81;4974206;28;20014;-72
2023/01/08 10:03:30;;;;;;;26.77;9.20;;;;;;;-144.47;77.37;52905.75;4973251;28;20085;-72
2023/01/08 10:05:55;;;;;;;14.75;5.82;;;;;;;-144.47;77.13;52911.69;4972325;28;20030;-72
2023/01/08 10:08:21;;;;;;;17.98;7.45;;;;;;;-144.47;77.32;52911.69;4975155;28;20104;-71
2023/01/08 10:10:46;;;;;;;18.85;7.75;;;;;;;-144.47;77.27;52909.72;4970012;28;20039;-69
2023/01/08 10:13:13;;;;;;;18.15;7.63;;;;;;;-144.47;76.77;52921.63;4973837;28;20034;-72
2023/01/08 10:15:39;;;;;;;13.15;6.15;;;;;;;-144.47;76.75;52899.78;4973469;28;20031;-71
2023/01/08 10:18:13;;;;;;;10.95;5.38;;;;;;;-144.47;76.96;52883.91;4970026;28;20089;-67
2023/01/08 10:20:38;;;;;;;8.85;4.72;;;;;;;-144.47;76.59;52887.88;4970742;28;20366;-71
2023/01/08 10:23:09;;;;;;;8.82;4.57;;;;;;;-144.47;76.53;52911.69;4969172;28;20037;-70
2023/01/08 10:25:54;;;;;;;9.52;5.15;;;;;;;-144.47;76.40;52899.78;4971382;28;20049;-65
2023/01/08 10:28:25;;;;;;;8.85;4.32;;;;;;;-144.47;76.40;52919.66;4972784;28;20022;-68
2023/01/08 10:30:53;;;;;;;13.05;4.78;;;;;;;-144.47;76.10;52889.84;4970569;28;20047;-70
2023/01/08 10:33:39;;;;;;;9.20;4.13;;;;;;;-144.47;75.83;52895.81;4974153;28;20413;-74
2023/01/08 10:36:07;;;;;;;10.02;4.10;;;;;;;-144.47;75.88;52905.75;4974891;28;20083;-69
2023/01/08 10:38:48;;;;;;;9.88;5.03;;;;;;;-144.47;75.89;52943.47;4975597;28;20018;-72
2023/01/08 10:41:14;;;;;;;8.07;3.55;;;;;;;-144.47;75.57;52911.69;4970569;28;20054;-67
2023/01/08 10:43:46;;;;;;;9.65;4.15;;;;;;;-144.47;75.69;52907.72;4974768;28;20026;-67
2023/01/08 10:46:35;;;;;;;7.85;3.95;;;;;;;-144.47;75.63;52907.72;4976707;28;20042;-69
2023/01/08 10:49:04;;;;;;;6.47;3.78;;;;;;;-144.47;75.44;52921.63;4969525;28;20443;-68
2023/01/08 10:51:31;;;;;;;9.38;4.88;;;;;;;-144.47;75.58;52921.63;4970088;28;20485;-72
2023/01/08 10:54:25;;;;;;;10.20;4.45;;;;;;;-144.47;75.29;52901.78;4973242;28;20042;-72
2023/01/08 10:56:51;;;;;;;9.38;4.53;;;;;;;-144.47;74.90;52911.69;4975272;28;20045;-74
2023/01/08 10:59:21;;;;;;;10.50;4.97;;;;;;;-144.47;74.44;52917.66;4976210;28;20039;-69
2023/01/08 11:01:49;;;;;;;14.05;5.13;;;;;;;-144.47;74.42;52893.81;4976179;28;20097;-68
2023/01/08 11:04:23;;;;;;;8.90;4.40;;;;;;;-144.47;74.74;52909.72;4977665;28;20044;-68
2023/01/08 11:06:49;;;;;;;7.70;4.00;;;;;;;-144.47;74.24;52905.75;4976276;28;20040;-68
2023/01/08 11:09:27;;;;;;;8.88;4.45;;;;;;;-144.47;73.75;52905.75;4975003;28;20703;-72
2023/01/08 11:11:53;;;;;;;7.40;4.00;;;;;;;-144.47;73.98;52917.66;4975184;28;20143;-68
2023/01/08 11:14:27;;;;;;;10.40;4.85;;;;;;;-144.47;73.36;52871.97;4976231;28;20462;-69
2023/01/08 11:16:53;;;;;;;8.45;4.15;;;;;;;-144.47;73.97;52903.75;4975176;28;20503;-71